createdAt,value
2023-03-05T03:46:51.411Z,23.53
2023-03-05T03:49:24.862Z,21.77
2023-03-05T03:51:54.719Z,21.53
2023-03-05T03:54:22.758Z,19.50
2023-03-05T03:56:49.823Z,18.40
2023-03-05T03:59:16.907Z,19.90
2023-03-05T04:01:43.753Z,20.53
2023-03-05T04:04:13.057Z,20.53
2023-03-05T06:09:10.058Z,16.50
2023-03-05T06:11:38.599Z,16.63
2023-03-05T06:14:05.553Z,15.87
2023-03-05T06:16:32.527Z,17.50
2023-03-05T06:19:00.396Z,17.73
2023-03-05T06:21:27.340Z,16.67
2023-03-05T06:23:54.304Z,17.17
2023-03-05T06:26:22.565Z,18.00
2023-03-05T06:28:49.423Z,17.63
2023-03-05T06:31:22.435Z,16.70
2023-03-05T06:33:49.652Z,16.57
2023-03-05T06:36:19.149Z,16.17
2023-03-05T06:41:18.461Z,15.60
2023-03-05T06:43:47.166Z,16.03
2023-03-05T06:46:20.055Z,18.48
2023-03-05T06:48:47.935Z,14.63
2023-03-05T06:51:24.859Z,13.93
2023-03-05T06:53:53.447Z,18.47
2023-03-05T06:56:21.336Z,16.65
2023-03-05T06:58:50.867Z,15.67
2023-03-05T07:03:49.945Z,14.43
2023-03-05T07:06:16.953Z,15.93
2023-03-05T07:08:47.369Z,19.37
2023-03-05T07:11:19.407Z,15.57
2023-03-05T07:13:49.076Z,16.87
2023-03-05T07:16:22.704Z,18.37
2023-03-05T07:18:49.740Z,16.47
2023-03-05T07:21:20.130Z,15.50
2023-03-05T07:23:47.425Z,16.50
2023-03-05T07:26:14.725Z,16.60
2023-03-05T07:28:43.690Z,19.63
2023-03-05T07:31:27.590Z,15.15
2023-03-05T07:33:54.606Z,18.30
2023-03-05T07:36:21.711Z,16.50
2023-03-05T07:38:48.707Z,18.83
2023-03-05T07:41:21.452Z,18.73
2023-03-05T07:43:50.081Z,19.37
2023-03-05T07:46:19.629Z,19.38
2023-03-05T07:48:46.695Z,19.83
2023-03-05T07:51:17.237Z,18.90
2023-03-05T07:53:45.435Z,17.97
2023-03-05T07:56:12.761Z,17.27
2023-03-05T07:58:39.687Z,18.10
2023-03-05T08:01:14.110Z,19.87
2023-03-05T08:03:42.472Z,16.43
2023-03-05T08:06:10.888Z,19.43
2023-03-05T08:08:38.136Z,19.37
2023-03-05T08:11:11.902Z,17.60
2023-03-05T08:13:39.488Z,18.90
2023-03-05T08:16:15.688Z,19.17
2023-03-05T08:18:42.924Z,17.90
2023-03-05T08:21:27.640Z,21.47
2023-03-05T08:23:54.469Z,20.10
2023-03-05T08:26:23.425Z,19.40
2023-03-05T08:28:51.216Z,20.10
2023-03-05T08:31:21.428Z,19.97
2023-03-05T08:33:50.080Z,20.97
2023-03-05T08:36:16.973Z,19.63
2023-03-05T08:38:44.896Z,19.63
2023-03-05T08:41:11.892Z,18.47
2023-03-05T08:43:39.267Z,20.13
2023-03-05T08:46:06.500Z,19.87
2023-03-05T08:48:34.695Z,20.30
2023-03-05T08:51:13.909Z,18.77
2023-03-05T08:53:42.418Z,19.27
2023-03-05T08:56:09.547Z,19.60
2023-03-05T08:58:37.092Z,20.70
2023-03-05T09:01:04.355Z,22.03
2023-03-05T09:03:31.339Z,21.83
2023-03-05T09:06:03.076Z,18.43
2023-03-05T09:08:30.720Z,17.33
2023-03-05T09:10:57.758Z,19.03
2023-03-05T09:13:24.845Z,19.13
2023-03-05T09:16:00.286Z,18.60
2023-03-05T09:18:27.817Z,18.37
2023-03-05T09:20:54.937Z,18.37
2023-03-05T09:23:22.801Z,19.23
2023-03-05T09:25:50.188Z,17.30
2023-03-05T09:28:17.738Z,17.07
2023-03-05T09:30:44.587Z,14.67
2023-03-05T09:33:11.616Z,15.63
2023-03-05T09:35:38.592Z,15.50
2023-03-05T09:38:05.545Z,15.40
2023-03-05T09:40:44.241Z,16.87
2023-03-05T09:43:34.845Z,16.88
2023-03-05T09:46:40.153Z,17.60
2023-03-05T09:49:31.815Z,15.10
2023-03-05T09:52:18.273Z,13.73
2023-03-05T09:54:49.495Z,13.90
2023-03-05T09:57:22.664Z,14.97
2023-03-05T10:00:04.330Z,12.47
2023-03-05T10:02:46.261Z,14.57
2023-03-05T10:05:28.992Z,15.90
2023-03-05T10:08:01.269Z,14.80
2023-03-05T10:10:40.916Z,16.07
2023-03-05T10:13:17.073Z,14.40
2023-03-05T10:15:58.956Z,14.77
2023-03-05T10:18:59.856Z,16.03
2023-03-05T10:22:13.169Z,15.13
2023-03-05T10:24:51.915Z,18.67
2023-03-05T10:27:43.136Z,16.52
2023-03-05T10:30:24.007Z,12.52
2023-03-05T10:33:11.448Z,13.05
2023-03-05T10:36:01.354Z,13.13
2023-03-05T10:38:40.037Z,12.65
2023-03-05T10:41:19.091Z,13.90
2023-03-05T10:43:55.527Z,11.73
2023-03-05T10:46:28.364Z,12.40
2023-03-05T10:49:02.992Z,12.82
2023-03-05T10:51:48.106Z,13.55
2023-03-05T10:54:36.088Z,13.30
2023-03-05T10:57:03.791Z,11.00
2023-03-05T10:59:32.174Z,13.13
2023-03-05T11:02:05.763Z,12.73
2023-03-05T11:04:36.809Z,12.85
2023-03-05T11:07:27.132Z,14.18
2023-03-05T11:10:15.429Z,14.13
2023-03-05T11:12:42.829Z,13.53
2023-03-05T11:15:09.620Z,12.70
2023-03-05T11:17:39.690Z,11.85
2023-03-05T11:20:29.009Z,15.50
2023-03-05T11:23:06.042Z,13.95
2023-03-05T11:25:34.888Z,13.93
2023-03-05T11:28:04.368Z,13.13
2023-03-05T11:33:22.782Z,11.17
2023-03-05T11:35:52.053Z,11.33
2023-03-05T11:40:57.409Z,10.80
2023-03-05T11:43:26.239Z,10.23
2023-03-05T11:46:02.549Z,10.40
2023-03-05T11:48:35.246Z,10.70
2023-03-05T11:51:08.528Z,12.75
2023-03-05T11:53:37.360Z,13.45
2023-03-05T11:56:35.013Z,14.00
2023-03-05T11:59:34.936Z,12.13
2023-03-05T12:02:01.933Z,12.10
2023-03-05T12:04:32.706Z,11.27
2023-03-05T12:07:04.309Z,10.48
2023-03-05T12:09:42.204Z,11.00
2023-03-05T12:13:02.607Z,11.25
2023-03-05T12:16:05.006Z,12.98
2023-03-05T12:19:08.156Z,11.23
2023-03-05T12:21:43.350Z,10.73
2023-03-05T12:24:28.002Z,11.68
2023-03-05T12:27:08.516Z,10.13
2023-03-05T12:29:52.012Z,9.93
2023-03-05T12:32:34.124Z,10.82
2023-03-05T12:35:06.609Z,9.90
2023-03-05T12:37:33.885Z,10.38
2023-03-05T12:40:19.923Z,10.70
2023-03-05T12:42:48.138Z,9.40
2023-03-05T12:45:16.388Z,10.50
2023-03-05T12:47:45.367Z,10.07
2023-03-05T12:50:27.390Z,8.82
2023-03-05T12:52:56.218Z,9.52
2023-03-05T12:55:33.713Z,9.70
2023-03-05T12:58:23.978Z,10.40
2023-03-05T13:01:02.700Z,11.45
2023-03-05T13:03:35.641Z,10.30
2023-03-05T13:06:08.302Z,9.75
2023-03-05T13:08:37.482Z,10.38
2023-03-05T13:11:08.416Z,10.27
2023-03-05T13:13:43.492Z,11.07
2023-03-05T13:16:25.134Z,10.15
2023-03-05T13:18:54.254Z,10.82
2023-03-05T13:21:27.153Z,11.55
2023-03-05T13:23:59.571Z,10.52
2023-03-05T13:26:38.366Z,10.75
2023-03-05T13:29:14.340Z,10.20
2023-03-05T13:31:45.142Z,9.75
2023-03-05T13:34:20.713Z,10.98
2023-03-05T13:36:54.739Z,11.88
2023-03-05T13:39:26.257Z,10.85
2023-03-05T13:42:15.821Z,11.73
2023-03-05T13:44:42.938Z,10.50
2023-03-05T13:47:19.034Z,11.70
2023-03-05T13:49:47.542Z,12.70
2023-03-05T13:55:19.309Z,10.65
2023-03-05T13:57:51.126Z,12.70
2023-03-05T14:00:39.821Z,12.48
2023-03-05T14:03:22.877Z,12.73
2023-03-05T14:05:53.208Z,13.93
2023-03-05T14:08:26.681Z,12.38
2023-03-05T14:11:15.846Z,13.90
2023-03-05T14:13:44.041Z,13.13
2023-03-05T14:16:14.887Z,14.10
2023-03-05T14:19:00.535Z,13.00
2023-03-05T14:21:44.280Z,14.03
2023-03-05T14:24:23.737Z,14.20
2023-03-05T14:26:58.584Z,13.13
2023-03-05T14:29:27.614Z,12.27
2023-03-05T14:31:57.369Z,12.75
2023-03-05T14:34:32.382Z,14.10
2023-03-05T14:37:03.651Z,13.97
2023-03-05T14:39:41.424Z,13.38
2023-03-05T14:42:28.297Z,13.00
2023-03-05T14:44:56.901Z,15.00
2023-03-05T14:47:24.903Z,15.77
2023-03-05T14:49:52.064Z,14.57
2023-03-05T14:52:21.195Z,14.37
2023-03-05T14:54:48.558Z,12.30
2023-03-05T14:57:21.257Z,14.67
2023-03-05T14:59:48.523Z,12.03
2023-03-05T15:02:19.842Z,13.03
2023-03-05T15:04:47.681Z,12.67
2023-03-05T15:07:21.698Z,13.97
2023-03-05T15:09:48.714Z,10.67
2023-03-05T15:12:16.665Z,13.63
2023-03-05T15:14:44.091Z,13.53
2023-03-05T15:17:17.847Z,13.07
2023-03-05T15:19:46.064Z,13.90
2023-03-05T15:22:14.170Z,12.70
2023-03-05T15:24:41.822Z,13.57
2023-03-05T15:27:09.390Z,13.50
2023-03-05T15:29:36.228Z,12.77
2023-03-05T15:32:05.087Z,11.87
2023-03-05T15:34:34.397Z,11.48
2023-03-05T15:37:02.847Z,10.38
2023-03-05T15:39:30.118Z,10.47
2023-03-05T15:41:58.172Z,10.73
2023-03-05T15:44:25.422Z,11.50
2023-03-05T15:46:52.456Z,12.30
2023-03-05T15:49:23.358Z,13.77
2023-03-05T15:51:51.263Z,13.57
2023-03-05T15:54:19.610Z,13.33
2023-03-05T15:56:46.693Z,11.13
2023-03-05T15:59:14.512Z,14.30
2023-03-05T16:01:48.230Z,13.13
2023-03-05T16:04:16.576Z,13.23
2023-03-05T16:06:46.360Z,12.47
2023-03-05T16:09:14.077Z,11.17
2023-03-05T16:11:48.099Z,11.87
2023-03-05T16:14:20.089Z,14.27
2023-03-05T16:16:48.006Z,13.57
2023-03-05T16:19:18.976Z,12.30
2023-03-05T16:21:46.821Z,12.13
2023-03-05T16:24:16.060Z,14.07
2023-03-05T16:26:43.483Z,13.05
2023-03-05T16:29:11.874Z,11.83
2023-03-05T16:31:43.300Z,14.33
2023-03-05T16:34:14.225Z,15.80
2023-03-05T16:36:49.048Z,14.67
2023-03-05T16:39:16.051Z,13.57
2023-03-05T16:41:42.957Z,14.20
2023-03-05T16:44:11.053Z,14.57
2023-03-05T16:46:39.038Z,18.13
2023-03-05T16:49:05.996Z,15.20
2023-03-05T16:51:33.082Z,12.90
2023-03-05T16:54:02.030Z,17.20
2023-03-05T16:56:28.989Z,16.25
2023-03-05T16:58:56.642Z,15.87
2023-03-05T17:01:24.449Z,15.27
2023-03-05T17:03:52.705Z,13.90
2023-03-05T17:06:28.646Z,14.23
2023-03-05T17:08:56.564Z,12.87
2023-03-05T17:11:25.995Z,14.03
2023-03-05T17:13:54.082Z,13.23
2023-03-05T17:16:22.348Z,12.50
2023-03-05T17:18:49.577Z,12.73
2023-03-05T17:21:16.657Z,11.03
2023-03-05T17:23:45.476Z,11.40
2023-03-05T17:26:15.557Z,12.95
2023-03-05T17:28:44.500Z,12.17
2023-03-05T17:31:12.833Z,12.63
2023-03-05T17:33:41.762Z,12.40
2023-03-05T17:36:18.394Z,11.55
2023-03-05T17:38:46.646Z,11.53
2023-03-05T17:41:14.614Z,10.90
2023-03-05T17:43:41.954Z,11.50
2023-03-05T17:46:09.123Z,12.17
2023-03-05T17:48:39.452Z,11.83
2023-03-05T17:51:07.905Z,11.53
2023-03-05T17:53:35.623Z,11.20
2023-03-05T17:56:07.094Z,12.37
2023-03-05T17:58:34.041Z,13.07
2023-03-05T18:01:01.003Z,10.50
2023-03-05T18:03:28.070Z,12.03
2023-03-05T18:05:55.037Z,12.70
2023-03-05T18:08:22.022Z,10.07
2023-03-05T18:10:49.305Z,10.30
2023-03-05T18:13:16.744Z,10.43
2023-03-05T18:15:47.900Z,10.50
2023-03-05T18:18:18.957Z,12.30
2023-03-05T18:20:46.427Z,12.27
2023-03-05T18:23:13.350Z,10.67
2023-03-05T18:25:40.302Z,11.23
2023-03-05T18:28:13.179Z,9.53
2023-03-05T18:30:41.569Z,11.57
2023-03-05T18:33:13.828Z,10.27
2023-03-05T18:35:40.758Z,11.07
2023-03-05T18:38:08.189Z,10.90
2023-03-05T18:40:37.308Z,9.47
2023-03-05T18:43:05.484Z,10.70
2023-03-05T18:45:34.357Z,10.80
2023-03-05T18:48:01.838Z,11.40
2023-03-05T18:50:29.669Z,10.50
2023-03-05T18:52:56.784Z,12.23
2023-03-05T18:55:27.192Z,10.10
2023-03-05T18:57:54.336Z,11.37
2023-03-05T19:00:24.348Z,11.40
2023-03-05T19:02:51.811Z,12.87
2023-03-05T19:05:19.429Z,14.10
2023-03-05T19:07:47.256Z,14.10
2023-03-05T19:10:15.724Z,11.97
2023-03-05T19:13:05.773Z,11.03
2023-03-05T19:15:43.229Z,11.87
2023-03-05T19:18:10.384Z,12.20
2023-03-05T19:20:37.757Z,12.53
2023-03-05T19:23:04.603Z,12.93
2023-03-05T19:25:31.849Z,11.67
2023-03-05T19:27:58.659Z,11.53
2023-03-05T19:30:25.564Z,11.53
2023-03-05T19:32:52.422Z,14.17
2023-03-05T19:35:19.357Z,14.60
2023-03-05T19:37:46.673Z,11.97
2023-03-05T19:40:15.077Z,11.87
2023-03-05T19:42:42.395Z,13.27
2023-03-05T19:45:10.134Z,14.93
2023-03-05T19:47:37.124Z,11.50
2023-03-05T19:50:05.617Z,12.97
2023-03-05T19:52:33.565Z,13.10
2023-03-05T19:55:00.818Z,14.03
2023-03-05T19:57:27.767Z,12.43
2023-03-05T19:59:54.573Z,13.87
2023-03-05T20:02:22.066Z,12.20
2023-03-05T20:04:49.648Z,12.37
2023-03-05T20:07:16.965Z,12.80
2023-03-05T20:09:43.969Z,13.00
2023-03-05T20:12:10.923Z,13.93
2023-03-05T20:14:38.049Z,14.60
2023-03-05T20:17:04.905Z,15.40
2023-03-05T20:19:32.004Z,14.70
2023-03-05T20:22:02.128Z,14.13
2023-03-05T20:24:29.075Z,14.20
2023-03-05T20:26:56.008Z,13.37
2023-03-05T20:29:22.872Z,14.23
2023-03-05T20:31:50.380Z,14.20
2023-03-05T20:34:19.055Z,13.87
2023-03-05T20:36:46.726Z,16.08
2023-03-05T20:39:13.708Z,14.27
2023-03-05T20:41:40.986Z,14.27
2023-03-05T20:44:08.759Z,12.47
2023-03-05T20:46:49.771Z,12.93
2023-03-05T20:49:19.931Z,13.30
2023-03-05T20:51:49.321Z,13.57
2023-03-05T20:54:16.318Z,12.35
2023-03-05T20:56:44.009Z,12.80
2023-03-05T20:59:11.490Z,14.97
2023-03-05T21:01:41.018Z,16.17
2023-03-05T21:04:08.963Z,16.47
2023-03-05T21:06:36.403Z,14.23
2023-03-05T21:09:04.216Z,14.10
2023-03-05T21:11:32.195Z,13.40
2023-03-05T21:13:59.508Z,13.50
2023-03-05T21:16:27.551Z,13.73
2023-03-05T21:18:56.131Z,13.07
2023-03-05T21:21:24.098Z,13.03
2023-03-05T21:23:51.386Z,11.23
2023-03-05T21:26:18.292Z,12.43
2023-03-05T21:28:46.578Z,12.30
2023-03-05T21:31:23.402Z,13.83
2023-03-05T21:33:51.524Z,13.67
2023-03-05T21:36:18.998Z,14.00
2023-03-05T21:38:47.294Z,12.30
2023-03-05T21:41:14.508Z,11.90
2023-03-05T21:43:43.175Z,11.40
2023-03-05T21:46:11.368Z,11.95
2023-03-05T21:48:38.487Z,11.53
2023-03-05T21:51:51.198Z,12.47
2023-03-05T21:54:18.096Z,10.93
2023-03-05T21:56:45.899Z,10.57
2023-03-05T21:59:12.939Z,10.23
2023-03-05T22:01:39.804Z,10.77
2023-03-05T22:04:06.694Z,11.00
2023-03-05T22:06:33.893Z,10.30
2023-03-05T22:09:01.216Z,10.20
2023-03-05T22:11:29.488Z,10.73
2023-03-05T22:13:57.156Z,12.47
2023-03-05T22:16:26.322Z,14.20
2023-03-05T22:18:53.576Z,13.82
2023-03-05T22:21:25.392Z,12.83
2023-03-05T22:23:54.344Z,11.10
2023-03-05T22:26:21.541Z,11.93
2023-03-05T22:28:48.384Z,12.43
2023-03-05T22:31:27.462Z,11.17
2023-03-05T22:33:54.676Z,11.20
2023-03-05T22:36:21.647Z,10.93
2023-03-05T22:38:48.528Z,12.20
2023-03-05T22:41:19.842Z,12.73
2023-03-05T22:43:47.526Z,12.37
2023-03-05T22:46:15.624Z,11.77
2023-03-05T22:48:43.428Z,13.27
2023-03-05T22:51:11.478Z,12.57
2023-03-05T22:53:39.594Z,12.97
2023-03-05T22:56:12.752Z,13.83
2023-03-05T22:58:40.263Z,13.80
2023-03-05T23:01:18.152Z,17.47
2023-03-05T23:04:11.468Z,23.60
2023-03-05T23:06:51.238Z,22.50
2023-03-05T23:09:18.139Z,18.67
2023-03-05T23:11:44.992Z,12.40
2023-03-05T23:14:12.067Z,12.10
2023-03-05T23:16:39.140Z,11.60
2023-03-05T23:19:05.995Z,10.70
2023-03-05T23:21:33.103Z,11.63
2023-03-05T23:24:00.034Z,12.37
2023-03-05T23:26:26.934Z,11.93
2023-03-05T23:28:53.772Z,12.30
2023-03-05T23:31:20.800Z,13.60
2023-03-05T23:33:47.684Z,12.07
2023-03-05T23:36:14.586Z,11.47
2023-03-05T23:38:41.838Z,11.47
2023-03-05T23:41:09.690Z,12.97
2023-03-05T23:43:36.587Z,10.93
2023-03-05T23:46:03.505Z,11.50
2023-03-05T23:48:31.147Z,10.63
2023-03-05T23:50:58.115Z,11.30
2023-03-05T23:53:27.825Z,11.83
2023-03-05T23:55:56.069Z,11.67
2023-03-05T23:58:24.146Z,12.27
